createdAt,value
2023-10-26T00:04:00.822Z,88.84
2023-10-26T00:14:04.346Z,89.80
2023-10-26T00:24:08.707Z,90.71
2023-10-26T00:34:12.053Z,90.51
2023-10-26T00:44:15.143Z,90.93
2023-10-26T00:54:21.455Z,91.36
2023-10-26T01:04:24.804Z,91.20
2023-10-26T01:14:29.172Z,90.76
2023-10-26T01:24:32.722Z,90.12
2023-10-26T01:34:36.069Z,89.77
2023-10-26T01:44:40.695Z,89.27
2023-10-26T01:54:44.361Z,89.82
2023-10-26T02:04:47.865Z,90.17
2023-10-26T02:14:51.220Z,90.06
2023-10-26T02:24:54.522Z,89.97
2023-10-26T02:34:57.955Z,89.51
2023-10-26T02:45:01.278Z,90.35
2023-10-26T02:55:07.095Z,90.47
2023-10-26T03:05:10.456Z,89.24
2023-10-26T03:15:13.826Z,89.23
2023-10-26T03:25:18.406Z,89.11
2023-10-26T03:35:21.559Z,89.06
2023-10-26T03:45:28.495Z,89.17
2023-10-26T03:55:31.786Z,90.09
2023-10-26T04:05:35.633Z,90.10
2023-10-26T04:15:38.871Z,89.88
2023-10-26T04:25:53.746Z,90.53
2023-10-26T04:36:01.348Z,89.99
2023-10-26T04:46:04.902Z,89.24
2023-10-26T04:56:08.265Z,89.60
2023-10-26T05:06:11.869Z,89.68
2023-10-26T05:16:15.377Z,90.15
2023-10-26T05:26:18.610Z,90.19
2023-10-26T05:36:21.836Z,89.62
2023-10-26T05:46:25.265Z,90.14
2023-10-26T05:56:28.469Z,91.05
2023-10-26T06:06:31.758Z,91.36
2023-10-26T06:16:35.489Z,91.68
2023-10-26T06:26:39.034Z,92.35
2023-10-26T06:36:42.404Z,93.05
2023-10-26T06:46:45.693Z,93.13
2023-10-26T06:56:49.344Z,93.67
2023-10-26T07:06:52.470Z,92.94
2023-10-26T07:16:55.823Z,93.23
2023-10-26T07:26:59.288Z,92.31
2023-10-26T07:37:02.583Z,91.23
2023-10-26T07:47:10.131Z,91.32
2023-10-26T07:57:13.702Z,91.82
2023-10-26T08:07:17.046Z,90.70
2023-10-26T08:17:20.660Z,89.95
2023-10-26T08:27:25.169Z,89.80
2023-10-26T08:37:29.427Z,90.14
2023-10-26T08:47:33.698Z,90.49
2023-10-26T08:57:52.155Z,90.64
2023-10-26T09:07:55.748Z,90.32
2023-10-26T09:17:59.302Z,90.35
2023-10-26T09:28:06.535Z,88.64
2023-10-26T09:38:09.892Z,86.87
2023-10-26T09:48:13.372Z,84.41
2023-10-26T09:58:17.970Z,85.40
2023-10-26T10:08:58.803Z,82.51
2023-10-26T10:19:21.974Z,80.86
2023-10-26T10:29:25.029Z,78.92
2023-10-26T10:39:28.221Z,75.65
2023-10-26T10:49:31.729Z,75.39
2023-10-26T10:59:34.868Z,74.82
2023-10-26T11:09:41.273Z,72.04
2023-10-26T11:19:44.831Z,71.35
2023-10-26T11:30:02.511Z,70.96
2023-10-26T11:40:07.676Z,68.43
2023-10-26T11:50:21.137Z,67.91
2023-10-26T12:00:25.651Z,64.72
2023-10-26T12:10:29.011Z,64.32
2023-10-26T12:20:32.163Z,63.08
2023-10-26T12:30:35.784Z,62.41
2023-10-26T12:40:39.172Z,63.01
2023-10-26T12:50:42.195Z,61.27
2023-10-26T13:00:46.639Z,62.06
2023-10-26T13:10:49.806Z,61.45
2023-10-26T13:20:52.888Z,59.87
2023-10-26T13:30:55.968Z,59.58
2023-10-26T13:40:59.411Z,59.69
2023-10-26T13:51:02.532Z,58.65
2023-10-26T14:01:13.878Z,57.95
2023-10-26T14:11:17.507Z,59.11
2023-10-26T14:21:20.664Z,59.14
2023-10-26T14:31:26.417Z,58.83
2023-10-26T14:41:29.928Z,59.94
2023-10-26T14:51:33.250Z,61.60
2023-10-26T15:01:37.070Z,63.38
2023-10-26T15:11:50.778Z,64.73
2023-10-26T15:22:01.419Z,65.70
2023-10-26T15:32:05.178Z,66.58
2023-10-26T15:42:16.082Z,67.10
2023-10-26T15:52:19.521Z,67.93
2023-10-26T16:02:23.100Z,68.45
2023-10-26T16:12:26.771Z,69.46
2023-10-26T16:22:29.870Z,70.09
2023-10-26T16:32:36.074Z,70.65
2023-10-26T16:42:39.326Z,71.80
2023-10-26T16:52:42.782Z,73.10
2023-10-26T17:02:47.453Z,74.27
2023-10-26T17:12:50.800Z,75.08
2023-10-26T17:22:53.869Z,75.31
2023-10-26T17:32:57.583Z,75.82
2023-10-26T17:43:00.777Z,76.03
2023-10-26T17:53:03.969Z,76.41
2023-10-26T18:03:07.240Z,76.93
2023-10-26T18:13:11.571Z,77.44
2023-10-26T18:23:14.731Z,77.68
2023-10-26T18:33:18.334Z,77.96
2023-10-26T18:43:23.135Z,78.94
2023-10-26T18:53:27.126Z,79.34
2023-10-26T19:03:35.973Z,79.79
2023-10-26T19:13:41.575Z,80.27
2023-10-26T19:23:44.809Z,81.13
2023-10-26T19:33:49.568Z,81.46
2023-10-26T19:43:53.510Z,81.20
2023-10-26T19:53:56.581Z,81.11
2023-10-26T20:03:59.791Z,81.02
2023-10-26T20:14:04.110Z,81.12
2023-10-26T20:24:09.455Z,81.70
2023-10-26T20:34:18.486Z,81.97
2023-10-26T20:44:21.918Z,82.59
2023-10-26T20:54:25.136Z,83.30
2023-10-26T21:04:28.383Z,84.23
2023-10-26T21:14:32.171Z,84.15
2023-10-26T21:24:35.449Z,84.26
2023-10-26T21:34:38.624Z,84.12
2023-10-26T21:44:41.730Z,84.45
2023-10-26T21:54:45.004Z,85.53
2023-10-26T22:04:50.369Z,86.40
2023-10-26T22:14:54.858Z,86.26
2023-10-26T22:24:57.868Z,86.20
2023-10-26T22:35:02.285Z,86.04
2023-10-26T22:45:06.301Z,86.18
2023-10-26T22:55:09.461Z,86.63
2023-10-26T23:05:12.685Z,86.29
2023-10-26T23:15:16.217Z,86.22
2023-10-26T23:25:19.414Z,86.84
2023-10-26T23:35:22.532Z,86.84
2023-10-26T23:45:26.083Z,87.05
2023-10-26T23:55:29.224Z,87.06
